Time;durP1;ratioP1;P1;durP2;ratioP2;P2;SDS_P1;SDS_P2;PMS_P1;PMS_P2;Temp;Humidity;BMP_temperature;BMP_pressure;BME280_temperature;BME280_humidity;BME280_pressure;Samples;Min_cycle;Max_cycle;Signal;HPM_P1;HPM_P2
2022/10/20 00:01:54;;;;;;;18.95;14.65;;;;;;;13.15;54.11;94301.66;5050650;28;20047;-79
2022/10/20 00:04:19;;;;;;;19.42;14.15;;;;;;;13.56;53.45;94335.81;5051042;28;20029;-79
2022/10/20 00:06:45;;;;;;;19.50;13.23;;;;;;;13.35;52.89;94322.34;5051444;28;20031;-77
2022/10/20 00:09:10;;;;;;;19.95;13.82;;;;;;;13.28;52.89;94308.69;5048020;28;20032;-79
2022/10/20 00:11:36;;;;;;;17.20;12.48;;;;;;;13.28;52.30;94301.47;5051512;28;20615;-76
2022/10/20 00:14:02;;;;;;;17.05;11.40;;;;;;;13.50;51.68;94332.53;5049679;28;20032;-77
2022/10/20 00:16:29;;;;;;;21.88;11.45;;;;;;;13.43;51.96;94334.13;5048322;28;20132;-77
2022/10/20 00:18:56;;;;;;;15.60;12.02;;;;;;;13.29;51.43;94328.97;5050807;28;20094;-77
2022/10/20 00:21:24;;;;;;;19.58;13.75;;;;;;;13.35;51.50;94332.25;5047502;28;20033;-77
2022/10/20 00:23:50;;;;;;;15.45;11.00;;;;;;;13.33;51.18;94327.22;5050702;28;20024;-79
2022/10/20 00:26:18;;;;;;;17.20;11.88;;;;;;;13.38;50.80;94331.63;5024882;28;20067;-77
2022/10/20 00:28:44;;;;;;;16.63;11.52;;;;;;;13.38;50.49;94335.06;5048963;28;20024;-78
2022/10/20 00:31:11;;;;;;;15.50;11.45;;;;;;;13.36;50.59;94320.44;5049670;28;20021;-78
2022/10/20 00:33:36;;;;;;;13.57;11.30;;;;;;;13.06;50.27;94284.84;5048428;28;20208;-77
2022/10/20 00:36:04;;;;;;;13.60;11.10;;;;;;;13.22;50.21;94307.28;5032187;28;20022;-79
2022/10/20 00:38:30;;;;;;;17.05;11.18;;;;;;;13.34;49.85;94320.78;5047424;28;20097;-78
2022/10/20 00:40:58;;;;;;;14.98;10.63;;;;;;;13.39;49.66;94293.91;5048140;28;20062;-78
2022/10/20 00:43:44;;;;;;;15.63;10.15;;;;;;;13.50;49.17;94302.34;5047622;28;20028;-77
2022/10/20 00:46:15;;;;;;;11.80;9.02;;;;;;;13.39;49.24;94296.59;5047844;28;20040;-77
2022/10/20 00:48:44;;;;;;;14.90;9.25;;;;;;;13.54;48.58;94300.63;5048659;28;20028;-77
2022/10/20 00:51:14;;;;;;;11.48;9.07;;;;;;;13.23;48.67;94252.78;5047970;28;20028;-76
2022/10/20 00:53:39;;;;;;;12.40;9.55;;;;;;;13.08;48.77;94258.63;5049279;28;20441;-79
2022/10/20 00:56:05;;;;;;;12.23;9.48;;;;;;;13.23;48.71;94290.16;5048333;28;20135;-77
2022/10/20 00:58:33;;;;;;;12.85;8.63;;;;;;;13.23;48.56;94268.78;5047480;28;20701;-77
2022/10/20 01:00:59;;;;;;;12.50;8.63;;;;;;;13.51;48.22;94299.34;5033341;28;20401;-77
2022/10/20 01:03:30;;;;;;;17.27;11.18;;;;;;;13.22;47.97;94283.25;5045647;28;20119;-78
2022/10/20 01:05:56;;;;;;;10.18;8.18;;;;;;;13.15;47.95;94269.63;5048318;28;20103;-79
2022/10/20 01:08:21;;;;;;;12.93;8.23;;;;;;;13.42;47.79;94314.63;5050841;28;20297;-77
2022/10/20 01:11:15;;;;;;;10.40;7.80;;;;;;;13.38;47.52;94303.03;5045223;28;20597;-79
2022/10/20 01:13:40;;;;;;;8.98;6.75;;;;;;;13.60;47.23;94308.16;5030181;28;20140;-78
2022/10/20 01:16:27;;;;;;;12.38;8.00;;;;;;;13.61;47.04;94317.75;5047545;28;20044;-79
2022/10/20 01:19:17;;;;;;;12.38;8.13;;;;;;;13.71;46.86;94311.28;5048831;28;20116;-78
2022/10/20 01:21:55;;;;;;;10.23;8.20;;;;;;;13.61;46.76;94300.94;5049867;28;20058;-79
2022/10/20 01:24:27;;;;;;;13.55;7.95;;;;;;;13.67;47.16;94313.03;5049281;28;20033;-78
2022/10/20 01:27:18;;;;;;;11.23;8.65;;;;;;;13.80;46.94;94308.56;5041573;28;20082;-79
2022/10/20 01:30:04;;;;;;;10.30;8.13;;;;;;;13.55;47.25;94297.63;5048472;28;20033;-79
2022/10/20 01:32:44;;;;;;;11.65;8.05;;;;;;;13.60;47.78;94315.38;5048069;28;20085;-79
2022/10/20 01:35:36;;;;;;;10.50;8.07;;;;;;;13.58;47.62;94318.38;5028281;28;20054;-77
2022/10/20 01:38:11;;;;;;;11.00;7.65;;;;;;;13.45;47.91;94316.66;5041394;28;20031;-79
2022/10/20 01:40:51;;;;;;;10.32;8.18;;;;;;;13.41;47.82;94289.00;5045573;28;20102;-79
2022/10/20 01:43:20;;;;;;;11.70;7.63;;;;;;;13.59;47.74;94287.88;5046160;28;20039;-78
2022/10/20 01:45:48;;;;;;;11.65;8.25;;;;;;;13.39;47.99;94272.53;5046585;28;20256;-79
2022/10/20 01:48:17;;;;;;;10.70;8.00;;;;;;;13.65;48.10;94318.69;5048099;28;20035;-79
2022/10/20 01:50:46;;;;;;;10.45;7.78;;;;;;;13.58;48.16;94307.69;5047566;28;20024;-78
2022/10/20 01:53:12;;;;;;;10.32;8.23;;;;;;;13.80;47.59;94314.69;5049896;28;20033;-78
2022/10/20 01:55:38;;;;;;;8.98;7.05;;;;;;;13.77;47.80;94309.22;5047691;28;20477;-79
2022/10/20 01:58:27;;;;;;;10.82;8.05;;;;;;;13.55;48.12;94310.97;5046213;28;20029;-79
2022/10/20 02:00:56;;;;;;;10.60;7.57;;;;;;;13.23;48.33;94284.81;5041513;28;20113;-78
2022/10/20 02:03:51;;;;;;;9.80;7.97;;;;;;;13.12;48.62;94304.94;5046672;28;20566;-79
2022/10/20 02:06:25;;;;;;;8.85;7.32;;;;;;;13.37;48.39;94328.16;5043443;28;20448;-78
2022/10/20 02:09:02;;;;;;;8.77;7.55;;;;;;;13.18;48.81;94323.16;5028092;28;20053;-78
2022/10/20 02:11:57;;;;;;;11.73;8.20;;;;;;;13.00;49.49;94328.84;5045464;28;20029;-78
2022/10/20 02:14:22;;;;;;;11.82;7.95;;;;;;;12.96;49.28;94322.56;5033457;28;20807;-78
2022/10/20 02:16:54;;;;;;;11.23;7.43;;;;;;;12.87;49.69;94334.03;5041707;28;20045;-79
2022/10/20 02:19:22;;;;;;;9.25;7.70;;;;;;;12.69;49.63;94303.09;5047443;28;20127;-79
2022/10/20 02:21:50;;;;;;;9.82;7.22;;;;;;;13.06;49.10;94330.22;5042074;28;20024;-78
2022/10/20 02:24:17;;;;;;;10.93;7.97;;;;;;;13.03;49.06;94306.84;5031591;28;20488;-79
2022/10/20 02:26:43;;;;;;;12.15;8.38;;;;;;;13.04;48.49;94297.75;5050015;28;20116;-79
2022/10/20 02:29:18;;;;;;;10.35;7.82;;;;;;;13.15;48.52;94334.47;5046086;28;20025;-79
2022/10/20 02:31:45;;;;;;;11.13;8.68;;;;;;;12.91;49.24;94336.84;5049374;28;20064;-80
2022/10/20 02:34:11;;;;;;;10.48;8.27;;;;;;;12.59;49.97;94340.75;5047470;28;20031;-80
2022/10/20 02:36:41;;;;;;;11.38;8.25;;;;;;;12.56;50.13;94349.38;5049286;28;20024;-80
2022/10/20 02:39:08;;;;;;;11.90;8.35;;;;;;;12.54;50.11;94348.88;5048438;28;20033;-78
2022/10/20 02:41:34;;;;;;;12.98;8.27;;;;;;;12.66;50.12;94351.78;5051391;28;20028;-79
2022/10/20 02:43:59;;;;;;;10.32;8.35;;;;;;;12.58;50.17;94331.19;5054234;28;20046;-79
2022/10/20 02:46:24;;;;;;;10.15;7.93;;;;;;;12.64;49.63;94332.59;5038403;28;20032;-80
2022/10/20 02:48:50;;;;;;;13.15;8.93;;;;;;;12.53;49.62;94323.28;5042291;28;20020;-78
2022/10/20 02:51:16;;;;;;;14.05;8.57;;;;;;;12.39;49.60;94312.78;5053788;28;20679;-79
2022/10/20 02:53:42;;;;;;;13.35;8.68;;;;;;;12.47;50.04;94348.53;5040617;28;20481;-79
2022/10/20 02:56:08;;;;;;;12.80;8.57;;;;;;;12.21;50.55;94329.84;5049649;28;20031;-79
2022/10/20 02:58:33;;;;;;;18.45;8.93;;;;;;;12.45;50.27;94345.41;5052496;28;20226;-79
2022/10/20 03:00:58;;;;;;;12.27;8.48;;;;;;;12.46;50.22;94350.47;5050365;28;20021;-78
2022/10/20 03:03:24;;;;;;;12.90;9.27;;;;;;;12.33;49.85;94330.00;5053642;28;20154;-78
2022/10/20 03:05:49;;;;;;;12.00;8.40;;;;;;;12.34;50.38;94344.13;5036284;28;21107;-78
2022/10/20 03:08:15;;;;;;;11.38;8.23;;;;;;;12.41;50.41;94347.94;5051964;28;20081;-79
2022/10/20 03:10:41;;;;;;;14.27;8.30;;;;;;;12.03;50.56;94299.66;5052254;28;20481;-80
2022/10/20 03:13:08;;;;;;;14.43;9.45;;;;;;;12.24;51.18;94361.22;5053842;28;20036;-79
2022/10/20 03:15:33;;;;;;;13.18;9.45;;;;;;;12.24;51.07;94355.88;5050084;28;20049;-78
2022/10/20 03:17:59;;;;;;;13.63;8.70;;;;;;;12.06;51.25;94332.16;5033575;28;20345;-80
2022/10/20 03:20:25;;;;;;;14.15;9.55;;;;;;;12.12;51.26;94349.59;5051695;28;20025;-79
2022/10/20 03:22:50;;;;;;;14.93;8.82;;;;;;;12.02;50.77;94314.13;5033177;28;20458;-80
2022/10/20 03:25:15;;;;;;;14.48;9.25;;;;;;;12.00;51.18;94334.94;5049164;28;20043;-77
2022/10/20 03:27:41;;;;;;;12.45;9.10;;;;;;;12.13;51.23;94353.78;5051975;28;20056;-78
2022/10/20 03:30:07;;;;;;;14.02;8.82;;;;;;;12.20;51.29;94360.28;5049339;28;20024;-79
2022/10/20 03:32:32;;;;;;;14.15;9.93;;;;;;;12.02;51.53;94342.66;5048678;28;20024;-78
2022/10/20 03:34:57;;;;;;;11.93;9.88;;;;;;;12.33;51.22;94371.91;5052556;28;20051;-79
2022/10/20 03:37:23;;;;;;;14.18;9.20;;;;;;;12.07;51.66;94373.72;5051740;28;20103;-80
2022/10/20 03:39:48;;;;;;;15.05;10.43;;;;;;;12.14;51.91;94382.03;5041993;28;20025;-79
2022/10/20 03:42:14;;;;;;;11.00;8.30;;;;;;;12.07;51.80;94379.03;5048906;28;20032;-80
2022/10/20 03:44:39;;;;;;;11.65;8.90;;;;;;;11.89;52.01;94378.97;5035109;28;20055;-78
2022/10/20 03:47:05;;;;;;;11.88;8.30;;;;;;;11.95;52.32;94391.06;5050839;28;20028;-79
2022/10/20 03:49:32;;;;;;;11.70;8.80;;;;;;;11.67;52.53;94371.03;5051119;28;20582;-78
2022/10/20 03:51:58;;;;;;;12.40;9.20;;;;;;;11.55;53.60;94394.78;5048313;28;20071;-78
2022/10/20 03:54:23;;;;;;;12.13;8.45;;;;;;;11.32;53.87;94378.00;5051172;28;20127;-78
2022/10/20 03:56:49;;;;;;;11.70;8.45;;;;;;;11.45;53.54;94376.34;5050174;28;20020;-77
2022/10/20 03:59:14;;;;;;;13.88;8.23;;;;;;;11.51;53.24;94377.84;5050444;28;20035;-77
2022/10/20 04:01:44;;;;;;;12.80;8.32;;;;;;;11.56;53.36;94367.84;5050171;28;20074;-79
2022/10/20 04:04:10;;;;;;;14.77;8.23;;;;;;;11.72;52.99;94381.56;5037801;28;20125;-78
2022/10/20 04:06:35;;;;;;;12.55;8.10;;;;;;;11.83;52.79;94393.50;5049322;28;20111;-79
2022/10/20 04:09:00;;;;;;;9.85;7.00;;;;;;;11.89;52.29;94370.19;5051756;28;20108;-77
2022/10/20 04:11:26;;;;;;;9.55;7.05;;;;;;;12.19;51.93;94396.03;5048316;28;20020;-78
2022/10/20 04:13:52;;;;;;;11.00;8.43;;;;;;;12.08;51.47;94392.06;5032225;28;20029;-79
2022/10/20 04:16:17;;;;;;;10.38;7.28;;;;;;;12.19;51.52;94400.56;5049372;28;20048;-78
2022/10/20 04:18:43;;;;;;;10.18;7.47;;;;;;;12.21;51.30;94393.06;5050946;28;20522;-80
2022/10/20 04:21:08;;;;;;;9.75;6.88;;;;;;;12.29;50.93;94379.75;5031030;28;20763;-78
2022/10/20 04:23:33;;;;;;;15.45;7.53;;;;;;;12.11;50.89;94350.66;5050650;28;20028;-78
2022/10/20 04:25:59;;;;;;;10.32;6.72;;;;;;;11.66;52.03;94348.13;5049420;28;20052;-77
2022/10/20 04:28:24;;;;;;;9.25;6.97;;;;;;;11.85;51.93;94372.69;5034356;28;20020;-77
2022/10/20 04:30:50;;;;;;;9.55;7.38;;;;;;;11.65;52.43;94383.88;5048393;28;20483;-79
2022/10/20 04:33:15;;;;;;;11.63;8.50;;;;;;;11.59;52.84;94371.75;5048029;28;20039;-77
2022/10/20 04:35:41;;;;;;;8.98;6.68;;;;;;;11.49;53.24;94385.31;5049050;28;20032;-78
2022/10/20 04:38:07;;;;;;;9.60;7.28;;;;;;;11.54;53.27;94396.66;5048654;28;20112;-78
2022/10/20 04:40:32;;;;;;;10.63;6.82;;;;;;;11.53;53.24;94399.63;5047935;28;20024;-78
2022/10/20 04:42:59;;;;;;;18.77;6.53;;;;;;;11.29;53.50;94377.84;5048626;28;20075;-79
2022/10/20 04:45:25;;;;;;;11.25;7.22;;;;;;;11.23;53.79;94381.69;5049597;28;20032;-78
2022/10/20 04:47:51;;;;;;;9.23;6.65;;;;;;;11.47;53.39;94403.47;5049653;28;20036;-77
2022/10/20 04:50:17;;;;;;;8.25;6.93;;;;;;;11.40;53.40;94405.75;5048690;28;20515;-78
2022/10/20 04:52:42;;;;;;;11.23;6.60;;;;;;;11.56;52.94;94412.34;5032844;28;20025;-79
2022/10/20 04:55:08;;;;;;;9.50;6.72;;;;;;;11.48;52.62;94378.41;5049808;28;20071;-79
2022/10/20 04:57:33;;;;;;;15.95;8.02;;;;;;;11.71;52.38;94417.28;5048846;28;20028;-80
2022/10/20 04:59:59;;;;;;;8.70;6.15;;;;;;;11.63;51.98;94385.28;5031616;28;20028;-77
2022/10/20 05:02:24;;;;;;;9.60;6.75;;;;;;;11.77;51.94;94421.41;5047195;28;20133;-79
2022/10/20 05:04:49;;;;;;;10.00;6.25;;;;;;;11.89;51.72;94429.59;5048336;28;20500;-78
2022/10/20 05:07:15;;;;;;;8.20;5.82;;;;;;;11.59;51.92;94398.41;5045874;28;20123;-77
2022/10/20 05:09:40;;;;;;;6.72;5.30;;;;;;;11.42;51.94;94392.94;5043145;28;20501;-77
2022/10/20 05:12:06;;;;;;;8.82;5.85;;;;;;;11.40;52.63;94422.53;5046225;28;20060;-78
2022/10/20 05:14:32;;;;;;;8.05;6.00;;;;;;;11.44;52.98;94422.75;5046442;28;20108;-77
2022/10/20 05:16:57;;;;;;;8.98;6.18;;;;;;;11.34;52.30;94396.34;5049604;28;20051;-78
2022/10/20 05:19:23;;;;;;;10.63;6.22;;;;;;;11.50;52.45;94437.50;5051281;28;20255;-79
2022/10/20 05:21:48;;;;;;;10.20;6.60;;;;;;;11.43;52.81;94447.78;5048875;28;20556;-79
2022/10/20 05:24:16;;;;;;;7.85;6.20;;;;;;;11.57;52.75;94449.34;5042633;28;20178;-78
2022/10/20 05:26:42;;;;;;;8.95;6.10;;;;;;;11.51;52.25;94420.44;5045077;28;20024;-78
2022/10/20 05:29:09;;;;;;;10.38;7.10;;;;;;;11.70;52.49;94458.34;5044320;28;20025;-79
2022/10/20 05:31:37;;;;;;;11.18;6.38;;;;;;;11.76;52.10;94457.13;5045698;28;20474;-78
2022/10/20 05:34:03;;;;;;;10.23;6.22;;;;;;;11.76;51.85;94440.34;5049616;28;20111;-79
2022/10/20 05:36:28;;;;;;;11.05;6.45;;;;;;;11.49;52.32;94441.25;5045854;28;20166;-79
2022/10/20 05:38:55;;;;;;;9.27;6.65;;;;;;;11.72;52.45;94472.16;5045816;28;20097;-79
2022/10/20 05:41:23;;;;;;;9.52;7.20;;;;;;;11.61;52.94;94460.16;5046054;28;20443;-78
2022/10/20 05:43:56;;;;;;;9.10;6.43;;;;;;;11.60;52.88;94463.91;5045007;28;20139;-78
2022/10/20 05:46:23;;;;;;;10.52;7.30;;;;;;;11.77;52.51;94489.91;5045254;28;21021;-80
2022/10/20 05:48:52;;;;;;;11.80;7.03;;;;;;;11.80;52.55;94473.28;5044098;28;20028;-79
2022/10/20 05:51:20;;;;;;;12.38;6.80;;;;;;;11.88;52.24;94489.31;5042781;28;20033;-78
2022/10/20 05:53:48;;;;;;;11.85;6.53;;;;;;;11.95;52.44;94497.69;5048330;28;20039;-79
2022/10/20 05:56:17;;;;;;;13.70;6.90;;;;;;;11.95;52.56;94507.56;5047396;28;20155;-78
2022/10/20 05:58:43;;;;;;;11.35;7.22;;;;;;;11.96;52.86;94515.28;5044472;28;20070;-78
2022/10/20 06:01:23;;;;;;;15.05;7.55;;;;;;;12.06;52.63;94516.09;5047011;28;20082;-77
2022/10/20 06:03:49;;;;;;;11.30;8.20;;;;;;;11.70;53.57;94479.66;5049243;28;20808;-78
2022/10/20 06:06:15;;;;;;;11.13;7.93;;;;;;;11.99;53.80;94530.66;5047456;28;20033;-77
2022/10/20 06:08:41;;;;;;;12.73;7.93;;;;;;;11.83;53.91;94499.34;5045667;28;20051;-77
2022/10/20 06:11:08;;;;;;;12.75;8.93;;;;;;;11.82;53.93;94500.44;5046618;28;20527;-79
2022/10/20 06:13:34;;;;;;;10.15;7.43;;;;;;;11.95;53.50;94534.22;5048212;28;20021;-77
2022/10/20 06:16:07;;;;;;;11.38;7.63;;;;;;;12.02;53.46;94519.41;5046781;28;21043;-78
2022/10/20 06:18:33;;;;;;;16.02;9.43;;;;;;;12.23;53.10;94540.19;5046346;28;20047;-78
2022/10/20 06:21:00;;;;;;;11.43;8.02;;;;;;;12.30;52.48;94545.91;5045260;28;20033;-78
2022/10/20 06:23:25;;;;;;;12.68;7.68;;;;;;;12.21;52.97;94543.19;5052595;28;20122;-79
2022/10/20 06:25:50;;;;;;;9.50;7.03;;;;;;;12.08;52.65;94529.94;5049580;28;20456;-78
2022/10/20 06:28:17;;;;;;;10.65;7.70;;;;;;;11.98;53.32;94536.28;5044335;28;20036;-77
2022/10/20 06:30:42;;;;;;;12.20;7.30;;;;;;;11.99;53.46;94551.19;5043513;28;20043;-78
2022/10/20 06:33:11;;;;;;;10.98;7.45;;;;;;;12.13;53.16;94556.44;5044501;28;20029;-77
2022/10/20 06:35:36;;;;;;;13.32;8.75;;;;;;;11.76;53.30;94494.44;5043667;28;20473;-78
2022/10/20 06:38:04;;;;;;;12.18;8.32;;;;;;;12.29;52.94;94550.44;5042891;28;20033;-77
2022/10/20 06:40:30;;;;;;;10.27;7.18;;;;;;;12.00;52.52;94505.56;5042148;28;20592;-79
2022/10/20 06:42:55;;;;;;;15.95;7.45;;;;;;;12.39;52.64;94541.38;5045390;28;20090;-79
2022/10/20 06:45:20;;;;;;;9.70;7.03;;;;;;;12.45;52.91;94559.63;5044021;28;20449;-77
2022/10/20 06:47:46;;;;;;;9.57;7.75;;;;;;;12.47;52.90;94556.63;5044720;28;20029;-78
2022/10/20 06:50:11;;;;;;;10.23;7.50;;;;;;;12.66;52.29;94553.81;5047606;28;20029;-78
2022/10/20 06:52:37;;;;;;;12.30;8.48;;;;;;;12.45;52.16;94526.84;5050868;28;20047;-78
2022/10/20 06:55:02;;;;;;;11.52;8.38;;;;;;;12.62;52.50;94560.81;5046533;28;20115;-78
2022/10/20 06:57:31;;;;;;;12.57;8.57;;;;;;;12.45;52.57;94545.50;5043810;28;20047;-77
2022/10/20 06:59:56;;;;;;;10.68;8.27;;;;;;;12.31;52.73;94537.59;5049040;28;20040;-77
2022/10/20 07:02:26;;;;;;;13.52;8.50;;;;;;;12.42;52.64;94562.09;5046213;28;20029;-77
2022/10/20 07:04:51;;;;;;;12.93;8.23;;;;;;;12.28;52.69;94562.19;5036815;28;20025;-79
2022/10/20 07:07:17;;;;;;;11.65;7.93;;;;;;;12.39;52.84;94560.84;5048234;28;20386;-78
2022/10/20 07:09:42;;;;;;;12.85;9.27;;;;;;;12.33;53.01;94553.28;5049579;28;20059;-78
2022/10/20 07:12:07;;;;;;;11.88;8.20;;;;;;;12.42;52.54;94564.78;5049718;28;20029;-77
2022/10/20 07:14:36;;;;;;;11.48;7.93;;;;;;;12.73;52.96;94575.47;5047674;28;20524;-77
2022/10/20 07:17:02;;;;;;;14.52;8.55;;;;;;;12.64;52.44;94575.44;5047614;28;20072;-79
2022/10/20 07:19:28;;;;;;;11.88;7.95;;;;;;;12.27;53.25;94573.19;5045804;28;20024;-78
2022/10/20 07:21:54;;;;;;;15.90;8.20;;;;;;;12.49;53.21;94583.81;5031855;28;20028;-78
2022/10/20 07:24:19;;;;;;;11.52;8.48;;;;;;;12.37;52.75;94552.34;5040110;28;20060;-78
2022/10/20 07:26:44;;;;;;;10.27;8.23;;;;;;;12.58;52.52;94574.00;5040661;28;20510;-78
2022/10/20 07:29:10;;;;;;;13.45;7.95;;;;;;;12.47;52.28;94567.31;5046858;28;20029;-77
2022/10/20 07:31:38;;;;;;;12.25;8.32;;;;;;;12.38;52.64;94569.16;5027835;28;20553;-78
2022/10/20 07:34:06;;;;;;;12.00;8.05;;;;;;;12.57;52.65;94576.94;5046492;28;20149;-77
2022/10/20 07:36:33;;;;;;;11.40;7.28;;;;;;;12.72;51.93;94576.56;5024626;28;20112;-78
2022/10/20 07:39:01;;;;;;;10.05;8.20;;;;;;;12.75;51.58;94568.75;5051228;28;20025;-78
2022/10/20 07:41:27;;;;;;;11.77;8.15;;;;;;;12.63;51.27;94525.03;5045044;28;20365;-79
2022/10/20 07:43:53;;;;;;;8.95;7.13;;;;;;;12.96;50.62;94578.88;5044573;28;20025;-79
2022/10/20 07:46:19;;;;;;;10.52;7.95;;;;;;;12.54;51.11;94578.34;5042152;28;20074;-78
2022/10/20 07:48:45;;;;;;;12.45;8.40;;;;;;;12.64;51.83;94575.44;5036804;28;21135;-79
2022/10/20 07:51:30;;;;;;;12.18;7.25;;;;;;;12.79;51.06;94574.25;5034870;28;20153;-79
2022/10/20 07:54:00;;;;;;;;;;;;;;;12.75;50.60;94574.09;5025847;28;20029;-79
2022/10/20 07:56:31;;;;;;;12.55;8.30;;;;;;;12.60;50.80;94531.78;5038089;28;20326;-78
2022/10/20 07:58:57;;;;;;;8.70;6.40;;;;;;;12.71;50.78;94557.09;5045299;28;20492;-77
2022/10/20 08:01:23;;;;;;;12.23;7.47;;;;;;;12.95;50.45;94570.09;5045442;28;20484;-79
2022/10/20 08:03:49;;;;;;;13.05;6.85;;;;;;;12.91;49.46;94553.09;5045364;28;20036;-78
2022/10/20 08:06:14;;;;;;;11.23;8.02;;;;;;;12.67;49.92;94544.69;5042567;28;20726;-79
2022/10/20 08:08:39;;;;;;;13.52;7.75;;;;;;;12.81;49.95;94562.16;5044778;28;20032;-80
2022/10/20 08:11:05;;;;;;;9.20;6.78;;;;;;;12.85;49.73;94567.69;5045767;28;20095;-78
2022/10/20 08:13:30;;;;;;;10.30;7.55;;;;;;;12.83;49.61;94573.34;5045188;28;20519;-79
2022/10/20 08:15:56;;;;;;;10.10;6.82;;;;;;;12.75;49.78;94566.09;5028199;28;20049;-79
2022/10/20 08:18:22;;;;;;;9.15;6.70;;;;;;;12.82;49.60;94573.63;5024765;28;20025;-80
2022/10/20 08:20:47;;;;;;;7.43;6.65;;;;;;;13.02;49.48;94572.28;5023455;28;20079;-79
2022/10/20 08:23:13;;;;;;;10.05;6.18;;;;;;;13.13;47.97;94573.59;5025973;28;20052;-80
2022/10/20 08:25:39;;;;;;;7.72;6.25;;;;;;;13.21;48.01;94564.78;5022421;28;20456;-79
2022/10/20 08:28:05;;;;;;;10.95;6.50;;;;;;;13.21;47.94;94559.47;5020239;28;20029;-78
2022/10/20 08:30:31;;;;;;;8.38;5.95;;;;;;;13.40;48.09;94567.22;5024992;28;20542;-79
2022/10/20 08:32:57;;;;;;;9.48;6.60;;;;;;;13.17;47.82;94529.13;5026479;28;20713;-78
2022/10/20 08:35:23;;;;;;;12.30;6.28;;;;;;;13.32;47.30;94555.41;5026586;28;20561;-79
2022/10/20 08:37:48;;;;;;;11.50;6.55;;;;;;;13.25;47.76;94534.47;5023993;28;20083;-81
2022/10/20 08:40:25;;;;;;;10.02;6.55;;;;;;;13.44;46.97;94552.13;5022860;28;20037;-80
2022/10/20 08:42:51;;;;;;;7.78;5.53;;;;;;;13.31;46.98;94543.94;5023683;28;20116;-79
2022/10/20 08:45:23;;;;;;;7.65;6.45;;;;;;;13.31;46.81;94567.19;5025185;28;20103;-79
2022/10/20 08:47:52;;;;;;;11.02;5.03;;;;;;;13.34;46.83;94553.22;5026546;28;20045;-79
2022/10/20 08:50:20;;;;;;;7.82;5.32;;;;;;;13.56;46.43;94550.41;5022993;28;20084;-79
2022/10/20 08:52:49;;;;;;;7.55;5.15;;;;;;;13.58;46.07;94542.88;5017065;28;20033;-78
2022/10/20 08:55:35;;;;;;;6.70;5.18;;;;;;;13.55;45.65;94543.47;5025454;28;20144;-77
2022/10/20 08:58:13;;;;;;;7.85;5.10;;;;;;;13.40;45.56;94541.25;5026084;28;20634;-77
2022/10/20 09:00:40;;;;;;;8.65;5.38;;;;;;;13.37;45.62;94546.44;5024672;28;20106;-78
2022/10/20 09:03:16;;;;;;;6.53;4.65;;;;;;;13.46;45.22;94542.69;5026032;28;20044;-78
2022/10/20 09:05:48;;;;;;;5.57;4.57;;;;;;;13.52;45.06;94552.13;5023218;28;20039;-78
2022/10/20 09:08:13;;;;;;;6.68;4.28;;;;;;;13.47;44.73;94557.63;5024657;28;20034;-77
2022/10/20 09:10:46;;;;;;;5.47;4.25;;;;;;;13.64;44.47;94546.97;5023716;28;20037;-77
2022/10/20 09:13:26;;;;;;;12.25;4.32;;;;;;;13.77;44.15;94549.81;5028874;28;20493;-76
2022/10/20 09:16:05;;;;;;;7.18;4.35;;;;;;;13.55;44.20;94546.16;5044811;28;20313;-79
2022/10/20 09:18:31;;;;;;;4.70;3.95;;;;;;;13.58;44.41;94558.13;5029876;28;20486;-77
2022/10/20 09:21:06;;;;;;;6.65;3.63;;;;;;;13.50;44.04;94526.81;5047224;28;20047;-77
2022/10/20 09:23:41;;;;;;;6.53;4.22;;;;;;;13.66;43.67;94550.13;5050686;28;20028;-77
2022/10/20 09:26:13;;;;;;;5.30;3.97;;;;;;;13.66;43.80;94534.09;5044520;28;20109;-77
2022/10/20 09:28:39;;;;;;;4.78;3.80;;;;;;;13.81;43.14;94559.56;5049571;28;20082;-78
2022/10/20 09:31:23;;;;;;;5.53;3.75;;;;;;;13.53;43.35;94518.97;5046149;28;20145;-77
2022/10/20 09:33:48;;;;;;;7.10;3.97;;;;;;;13.70;42.99;94550.28;5046089;28;20033;-79
2022/10/20 09:36:17;;;;;;;6.22;3.45;;;;;;;13.65;43.28;94545.88;5042585;28;20035;-79
2022/10/20 09:38:46;;;;;;;5.05;3.38;;;;;;;13.70;42.40;94556.41;5046345;28;20481;-77
2022/10/20 09:41:22;;;;;;;7.00;3.42;;;;;;;13.78;42.73;94552.19;5041037;28;20461;-77
2022/10/20 09:43:53;;;;;;;5.93;3.78;;;;;;;13.83;43.05;94548.56;5041316;28;20028;-77
2022/10/20 09:46:25;;;;;;;4.72;3.33;;;;;;;13.84;43.36;94544.78;5020853;28;21009;-77
2022/10/20 09:48:51;;;;;;;4.28;3.55;;;;;;;13.86;42.76;94531.88;5027721;28;20031;-77
2022/10/20 09:51:28;;;;;;;5.88;3.60;;;;;;;13.90;41.97;94511.41;5028794;28;20103;-79
2022/10/20 09:54:13;;;;;;;3.88;3.38;;;;;;;14.17;41.68;94537.81;5035421;28;20079;-77
2022/10/20 09:56:40;;;;;;;;;;;;;;;14.12;41.73;94529.97;5041392;28;20062;-77
2022/10/20 09:59:18;;;;;;;3.80;3.33;;;;;;;14.18;40.69;94534.03;5043630;28;19916;-78
2022/10/20 10:02:00;;;;;;;3.13;2.83;;;;;;;14.29;41.10;94535.28;5045903;28;20037;-77
2022/10/20 10:04:40;;;;;;;6.05;3.15;;;;;;;14.26;40.38;94514.50;5043155;28;20037;-77
2022/10/20 10:07:25;;;;;;;3.92;2.78;;;;;;;14.25;40.02;94518.28;5043788;28;20645;-78
2022/10/20 10:09:56;;;;;;;3.97;2.72;;;;;;;14.13;40.51;94526.19;5045978;28;20139;-78
2022/10/20 10:12:24;;;;;;;3.60;2.95;;;;;;;14.08;40.61;94513.75;5028242;28;20572;-78
2022/10/20 10:15:00;;;;;;;3.78;2.55;;;;;;;14.08;40.40;94504.97;5039151;28;20536;-77
2022/10/20 10:17:40;;;;;;;4.80;3.42;;;;;;;14.27;40.13;94520.66;5045649;28;20396;-77
2022/10/20 10:20:28;;;;;;;6.00;3.10;;;;;;;13.95;40.59;94471.94;5047844;28;20509;-80
2022/10/20 10:23:24;;;;;;;3.45;3.08;;;;;;;14.23;40.20;94499.06;5047064;28;20615;-79
2022/10/20 10:25:49;;;;;;;;;;;;;;;14.50;39.86;94517.44;5041539;28;20852;-80
2022/10/20 10:28:38;;;;;;;4.78;2.90;;;;;;;14.27;39.87;94505.38;5046862;28;19927;-78
2022/10/20 10:31:16;;;;;;;4.78;2.67;;;;;;;14.45;39.62;94511.47;5045694;28;20085;-79
2022/10/20 10:33:42;;;;;;;4.38;3.13;;;;;;;14.17;39.92;94495.03;5035725;28;20029;-78
2022/10/20 10:36:34;;;;;;;10.93;3.67;;;;;;;14.42;39.46;94512.88;5039678;28;20024;-79
2022/10/20 10:39:01;;;;;;;3.45;2.78;;;;;;;14.45;39.67;94516.81;5041946;28;20026;-78
2022/10/20 10:41:32;;;;;;;7.75;2.88;;;;;;;14.50;39.22;94509.41;5042920;28;20038;-80
2022/10/20 10:44:07;;;;;;;3.95;3.10;;;;;;;14.50;39.44;94500.59;5045112;28;20529;-78
2022/10/20 10:46:39;;;;;;;4.82;2.85;;;;;;;14.66;38.83;94503.56;5048915;28;20026;-79
2022/10/20 10:49:28;;;;;;;3.10;2.72;;;;;;;14.72;39.04;94504.91;5046196;28;20544;-79
2022/10/20 10:52:14;;;;;;;4.43;3.00;;;;;;;14.51;38.80;94489.56;5045489;28;20031;-79
2022/10/20 10:54:52;;;;;;;3.67;3.00;;;;;;;14.50;38.72;94492.56;5046152;28;21004;-80
2022/10/20 10:57:24;;;;;;;4.55;2.38;;;;;;;14.60;38.50;94498.38;5016972;28;20029;-79
2022/10/20 10:59:52;;;;;;;3.30;2.60;;;;;;;14.47;38.89;94467.19;5039315;28;20116;-80
2022/10/20 11:02:56;;;;;;;2.90;2.50;;;;;;;14.72;39.34;94496.88;5047960;28;20788;-79
2022/10/20 11:05:27;;;;;;;3.17;2.83;;;;;;;14.73;39.11;94493.09;5048626;28;20044;-80
2022/10/20 11:08:31;;;;;;;3.47;2.88;;;;;;;14.80;38.86;94490.72;5027859;28;20029;-78
2022/10/20 11:11:05;;;;;;;3.20;2.83;;;;;;;14.72;39.01;94483.50;5043525;28;20024;-77
2022/10/20 11:13:43;;;;;;;4.40;3.20;;;;;;;14.46;39.24;94462.97;5037314;28;20029;-79
2022/10/20 11:16:23;;;;;;;3.03;2.65;;;;;;;14.78;39.45;94477.66;5048355;28;20047;-79
2022/10/20 11:18:55;;;;;;;3.58;3.20;;;;;;;14.87;39.21;94481.06;5049539;28;20404;-80
2022/10/20 11:21:32;;;;;;;5.32;3.60;;;;;;;14.95;38.29;94477.56;5049689;28;20035;-79
2022/10/20 11:23:57;;;;;;;4.43;3.30;;;;;;;15.13;38.79;94472.09;5030498;28;21210;-80
2022/10/20 11:26:29;;;;;;;2.67;2.45;;;;;;;15.16;38.67;94466.06;5047582;28;20077;-79
2022/10/20 11:28:56;;;;;;;3.63;2.85;;;;;;;15.28;38.01;94464.25;5050200;28;20039;-80
2022/10/20 11:31:34;;;;;;;5.25;3.33;;;;;;;15.14;38.08;94469.09;5029012;28;20053;-78
2022/10/20 11:34:25;;;;;;;5.50;3.03;;;;;;;15.16;37.87;94450.78;5042907;28;20491;-79
2022/10/20 11:37:22;;;;;;;4.40;3.03;;;;;;;15.27;38.28;94457.34;5049961;28;20052;-78
2022/10/20 11:40:02;;;;;;;4.18;3.40;;;;;;;15.20;38.57;94434.88;5049983;28;20032;-80
2022/10/20 11:42:35;;;;;;;6.03;2.85;;;;;;;15.16;37.62;94440.06;5049508;28;20032;-78